Time;durP1;ratioP1;P1;durP2;ratioP2;P2;SDS_P1;SDS_P2;PMS_P1;PMS_P2;Temp;Humidity;BMP_temperature;BMP_pressure;BME280_temperature;BME280_humidity;BME280_pressure;Samples;Min_cycle;Max_cycle;Signal;HPM_P1;HPM_P2
2023/03/25 00:01:14;;;;;;;3.75;1.30;;;;;;;;;;4997022;28;20432;-63
2023/03/25 00:03:45;;;;;;;5.25;1.50;;;;;;;;;;4992933;28;20026;-63
2023/03/25 00:06:11;;;;;;;7.05;1.25;;;;;;;;;;4991928;28;20026;-62
2023/03/25 00:08:36;;;;;;;4.65;1.02;;;;;;;;;;4997566;28;20029;-62
2023/03/25 00:11:07;;;;;;;4.60;1.05;;;;;;;;;;4997122;28;20107;-64
2023/03/25 00:13:33;;;;;;;3.42;1.02;;;;;;;;;;4995100;28;20030;-64
2023/03/25 00:15:58;;;;;;;5.57;1.30;;;;;;;;;;5001926;28;20903;-64
2023/03/25 00:18:24;;;;;;;6.10;1.23;;;;;;;;;;4997418;28;20030;-64
2023/03/25 00:20:49;;;;;;;5.00;1.13;;;;;;;;;;4991820;28;20030;-64
2023/03/25 00:23:15;;;;;;;3.90;1.13;;;;;;;;;;4997912;28;20022;-63
2023/03/25 00:25:40;;;;;;;4.90;1.10;;;;;;;;;;4992177;28;20014;-64
2023/03/25 00:28:07;;;;;;;4.13;1.20;;;;;;;;;;4991888;28;20049;-64
2023/03/25 00:30:32;;;;;;;3.40;1.05;;;;;;;;;;4997216;28;20367;-64
2023/03/25 00:33:00;;;;;;;6.18;1.60;;;;;;;;;;4998577;28;20029;-64
2023/03/25 00:35:25;;;;;;;5.00;1.27;;;;;;;;;;4991439;28;20110;-65
2023/03/25 00:37:56;;;;;;;5.05;1.08;;;;;;;;;;4996080;28;20105;-65
2023/03/25 00:40:21;;;;;;;5.22;1.15;;;;;;;;;;4994735;28;20580;-64
2023/03/25 00:42:48;;;;;;;4.63;1.00;;;;;;;;;;4995632;28;20018;-64
2023/03/25 00:45:14;;;;;;;4.07;1.13;;;;;;;;;;4996336;28;20018;-64
2023/03/25 00:47:40;;;;;;;5.40;1.00;;;;;;;;;;4993264;28;20170;-64
2023/03/25 00:50:05;;;;;;;4.30;1.52;;;;;;;;;;4991436;28;20438;-63
2023/03/25 00:52:30;;;;;;;4.00;1.20;;;;;;;;;;4989923;28;20098;-64
2023/03/25 00:54:56;;;;;;;7.10;1.27;;;;;;;;;;4994927;28;20038;-64
2023/03/25 00:57:21;;;;;;;7.40;1.40;;;;;;;;;;4998606;28;20494;-65
2023/03/25 00:59:46;;;;;;;7.15;1.15;;;;;;;;;;4994156;28;20113;-63
2023/03/25 01:02:11;;;;;;;6.18;1.10;;;;;;;;;;4997365;28;20223;-65
2023/03/25 01:04:38;;;;;;;4.57;1.00;;;;;;;;;;5003612;28;20484;-65
2023/03/25 01:07:03;;;;;;;5.00;1.40;;;;;;;;;;5009488;28;20119;-65
2023/03/25 01:09:28;;;;;;;7.10;1.30;;;;;;;;;;5002646;28;20494;-63
2023/03/25 01:11:53;;;;;;;5.78;1.27;;;;;;;;;;5006320;28;20030;-63
2023/03/25 01:14:19;;;;;;;3.65;1.10;;;;;;;;;;4998446;28;20033;-65
2023/03/25 01:16:45;;;;;;;6.10;1.10;;;;;;;;;;4999221;28;20037;-63
2023/03/25 01:19:10;;;;;;;5.80;1.30;;;;;;;;;;5004560;28;20030;-64
2023/03/25 01:21:36;;;;;;;4.78;1.10;;;;;;;;;;4994070;28;20441;-64
2023/03/25 01:24:02;;;;;;;5.60;1.20;;;;;;;;;;5000850;28;20366;-64
2023/03/25 01:26:27;;;;;;;6.20;1.10;;;;;;;;;;4998496;28;20809;-62
2023/03/25 01:28:52;;;;;;;6.87;1.30;;;;;;;;;;5010370;28;20041;-64
2023/03/25 01:31:18;;;;;;;3.83;1.20;;;;;;;;;;4995288;28;20045;-62
2023/03/25 01:33:43;;;;;;;7.65;1.38;;;;;;;;;;4995554;28;20054;-63
2023/03/25 01:36:11;;;;;;;5.93;1.30;;;;;;;;;;5005200;28;20049;-63
2023/03/25 01:38:37;;;;;;;5.10;1.10;;;;;;;;;;5002477;28;20822;-62
2023/03/25 01:41:03;;;;;;;5.25;1.20;;;;;;;;;;4996005;28;20109;-62
2023/03/25 01:43:28;;;;;;;6.88;1.20;;;;;;;;;;4996679;28;20551;-62
2023/03/25 01:45:53;;;;;;;4.68;1.40;;;;;;;;;;5003753;28;20022;-63
2023/03/25 01:48:22;;;;;;;6.50;1.37;;;;;;;;;;5006012;28;20092;-63
2023/03/25 01:50:51;;;;;;;5.43;1.10;;;;;;;;;;4999637;28;20021;-63
2023/03/25 01:53:17;;;;;;;3.97;1.15;;;;;;;;;;5005823;28;20025;-63
2023/03/25 01:55:43;;;;;;;4.30;1.10;;;;;;;;;;5012188;28;20099;-63
2023/03/25 01:58:10;;;;;;;4.70;1.25;;;;;;;;;;4999544;28;20037;-64
2023/03/25 02:00:38;;;;;;;5.65;1.20;;;;;;;;;;4995956;28;20022;-63
2023/03/25 02:03:03;;;;;;;6.40;1.67;;;;;;;;;;5005858;28;20049;-63
2023/03/25 02:05:32;;;;;;;5.18;1.20;;;;;;;;;;4997116;28;20026;-63
2023/03/25 02:07:58;;;;;;;7.68;1.50;;;;;;;;;;5001571;28;20560;-62
2023/03/25 02:10:23;;;;;;;4.47;1.17;;;;;;;;;;5000357;28;20449;-62
2023/03/25 02:12:48;;;;;;;6.67;1.30;;;;;;;;;;5003382;28;20122;-62
2023/03/25 02:15:15;;;;;;;5.67;1.10;;;;;;;;;;5009451;28;20060;-62
2023/03/25 02:17:47;;;;;;;4.00;1.10;;;;;;;;;;5009285;28;20042;-62
2023/03/25 02:20:30;;;;;;;7.43;1.13;;;;;;;;;;5002248;28;20501;-64
2023/03/25 02:23:14;;;;;;;7.00;1.20;;;;;;;;;;5002238;28;20156;-63
2023/03/25 02:25:57;;;;;;;5.95;1.30;;;;;;;;;;5005330;28;20014;-63
2023/03/25 02:28:41;;;;;;;6.18;1.10;;;;;;;;;;4995944;28;20060;-62
2023/03/25 02:31:09;;;;;;;3.95;1.05;;;;;;;;;;4993020;28;20511;-63
2023/03/25 02:33:46;;;;;;;3.85;1.00;;;;;;;;;;4991923;28;20049;-63
2023/03/25 02:36:29;;;;;;;5.22;1.20;;;;;;;;;;5001087;28;20080;-62
2023/03/25 02:39:12;;;;;;;3.70;1.08;;;;;;;;;;5000468;28;20405;-62
2023/03/25 02:41:50;;;;;;;3.88;1.05;;;;;;;;;;4992160;28;20246;-63
2023/03/25 02:44:24;;;;;;;4.75;1.00;;;;;;;;;;5001030;28;20396;-63
2023/03/25 02:46:52;;;;;;;3.35;0.93;;;;;;;;;;4995430;28;20018;-63
2023/03/25 02:49:20;;;;;;;3.67;1.00;;;;;;;;;;5000615;28;20068;-64
2023/03/25 02:51:50;;;;;;;4.22;1.10;;;;;;;;;;5001381;28;20481;-63
2023/03/25 02:54:16;;;;;;;5.28;1.20;;;;;;;;;;4996333;28;20038;-62
2023/03/25 02:56:43;;;;;;;6.82;1.25;;;;;;;;;;4997956;28;20033;-64
2023/03/25 02:59:13;;;;;;;4.13;1.10;;;;;;;;;;4993871;28;20109;-62
2023/03/25 03:01:38;;;;;;;5.03;1.20;;;;;;;;;;4998595;28;20121;-64
2023/03/25 03:04:04;;;;;;;4.97;1.00;;;;;;;;;;4999379;28;20053;-64
2023/03/25 03:06:30;;;;;;;5.53;1.23;;;;;;;;;;4991973;28;20073;-63
2023/03/25 03:09:01;;;;;;;4.40;1.10;;;;;;;;;;4999388;28;20046;-63
2023/03/25 03:11:28;;;;;;;5.43;1.00;;;;;;;;;;4996741;28;20022;-63
2023/03/25 03:13:53;;;;;;;5.20;1.20;;;;;;;;;;4994163;28;20022;-63
2023/03/25 03:16:29;;;;;;;3.85;0.85;;;;;;;;;;4997659;28;20029;-64
2023/03/25 03:19:15;;;;;;;7.13;1.00;;;;;;;;;;4998282;28;20023;-63
2023/03/25 03:21:50;;;;;;;6.68;1.20;;;;;;;;;;4996324;28;20061;-64
2023/03/25 03:24:20;;;;;;;7.20;1.38;;;;;;;;;;4994709;28;20470;-64
2023/03/25 03:26:52;;;;;;;4.25;1.05;;;;;;;;;;4995777;28;20109;-64
2023/03/25 03:29:38;;;;;;;4.85;1.00;;;;;;;;;;4976072;28;1028068;-64
2023/03/25 03:32:10;;;;;;;4.85;1.10;;;;;;;;;;5000430;28;20385;-64
2023/03/25 03:34:39;;;;;;;5.40;1.17;;;;;;;;;;5006572;28;20046;-63
2023/03/25 03:37:05;;;;;;;5.38;1.45;;;;;;;;;;5003819;28;20406;-63
2023/03/25 03:39:32;;;;;;;5.07;1.00;;;;;;;;;;5004732;28;20049;-64
2023/03/25 03:42:09;;;;;;;4.65;1.00;;;;;;;;;;5000271;28;20022;-63
2023/03/25 03:44:36;;;;;;;4.45;0.90;;;;;;;;;;4992723;28;20033;-63
2023/03/25 03:47:09;;;;;;;3.88;0.95;;;;;;;;;;4995801;28;20033;-63
2023/03/25 03:49:41;;;;;;;4.05;1.00;;;;;;;;;;5007560;28;20610;-63
2023/03/25 03:52:12;;;;;;;4.57;1.00;;;;;;;;;;4994814;28;20366;-64
2023/03/25 03:54:44;;;;;;;6.05;1.30;;;;;;;;;;4999630;28;20007;-63
2023/03/25 03:57:20;;;;;;;6.03;1.33;;;;;;;;;;5003103;28;20030;-63
2023/03/25 03:59:48;;;;;;;4.30;1.00;;;;;;;;;;5001710;28;20028;-64
2023/03/25 04:02:22;;;;;;;4.28;0.95;;;;;;;;;;4996856;28;20030;-63
2023/03/25 04:04:47;;;;;;;6.05;1.20;;;;;;;;;;4993985;28;20023;-63
2023/03/25 04:07:14;;;;;;;5.13;1.10;;;;;;;;;;4996255;28;20034;-64
2023/03/25 04:09:56;;;;;;;4.80;1.00;;;;;;;;;;4999083;28;20018;-64
2023/03/25 04:12:24;;;;;;;4.07;0.75;;;;;;;;;;4996587;28;20018;-64
2023/03/25 04:14:50;;;;;;;3.60;0.80;;;;;;;;;;4993698;28;20027;-64
2023/03/25 04:17:16;;;;;;;2.77;0.73;;;;;;;;;;4994575;28;20048;-64
2023/03/25 04:19:41;;;;;;;5.03;0.70;;;;;;;;;;5000597;28;20027;-64
2023/03/25 04:22:07;;;;;;;4.55;0.90;;;;;;;;;;4997138;28;20107;-64
2023/03/25 04:24:36;;;;;;;2.22;0.60;;;;;;;;;;5002823;28;20125;-63
2023/03/25 04:27:03;;;;;;;3.50;0.68;;;;;;;;;;5004813;28;20411;-64
2023/03/25 04:29:28;;;;;;;4.00;0.88;;;;;;;;;;4994104;28;20105;-64
2023/03/25 04:31:55;;;;;;;3.30;0.70;;;;;;;;;;4992128;28;20575;-62
2023/03/25 04:34:20;;;;;;;;;;;;;;;;;;5000025;28;20058;-63
2023/03/25 04:36:48;;;;;;;2.72;0.52;;;;;;;;;;5002829;28;20396;-63
2023/03/25 04:39:16;;;;;;;2.42;0.60;;;;;;;;;;5005519;28;20022;-63
2023/03/25 04:41:42;;;;;;;2.55;0.70;;;;;;;;;;4991926;28;20027;-63
2023/03/25 04:44:07;;;;;;;2.33;0.60;;;;;;;;;;5000909;28;20021;-63
2023/03/25 04:46:35;;;;;;;5.00;0.70;;;;;;;;;;4995491;28;20022;-62
2023/03/25 04:49:02;;;;;;;2.90;0.63;;;;;;;;;;4997700;28;20034;-62
2023/03/25 04:51:29;;;;;;;5.63;0.90;;;;;;;;;;4998104;28;20019;-62
2023/03/25 04:53:54;;;;;;;;;;;;;;;;;;5002444;28;20026;-63
2023/03/25 04:56:19;;;;;;;3.13;0.50;;;;;;;;;;4998404;28;19916;-64
2023/03/25 04:58:44;;;;;;;3.05;0.50;;;;;;;;;;5000802;28;20022;-64
2023/03/25 05:01:36;;;;;;;2.55;0.70;;;;;;;;;;4998160;28;20032;-64
2023/03/25 05:04:05;;;;;;;3.95;0.75;;;;;;;;;;4995457;28;20035;-64
2023/03/25 05:06:32;;;;;;;4.70;1.00;;;;;;;;;;4994127;28;20024;-65
2023/03/25 05:08:58;;;;;;;2.15;0.50;;;;;;;;;;4995654;28;20022;-64
2023/03/25 05:11:23;;;;;;;2.03;0.43;;;;;;;;;;4996949;28;20018;-65
2023/03/25 05:13:48;;;;;;;2.25;0.40;;;;;;;;;;4994484;28;20069;-65
2023/03/25 05:16:14;;;;;;;1.80;0.33;;;;;;;;;;4999819;28;20021;-65
2023/03/25 05:18:39;;;;;;;2.28;0.50;;;;;;;;;;4996204;28;20113;-65
2023/03/25 05:21:05;;;;;;;3.83;0.47;;;;;;;;;;4998460;28;20496;-64
2023/03/25 05:23:30;;;;;;;2.42;0.38;;;;;;;;;;4994375;28;20069;-64
2023/03/25 05:25:55;;;;;;;1.17;0.30;;;;;;;;;;4996542;28;20025;-65
2023/03/25 05:28:20;;;;;;;2.20;0.30;;;;;;;;;;4993760;28;20492;-64
2023/03/25 05:30:46;;;;;;;6.57;0.60;;;;;;;;;;4998207;28;20148;-64
2023/03/25 05:33:14;;;;;;;1.75;0.35;;;;;;;;;;4997700;28;20049;-64
2023/03/25 05:35:39;;;;;;;2.85;0.40;;;;;;;;;;4995263;28;20061;-65
2023/03/25 05:38:06;;;;;;;1.87;0.30;;;;;;;;;;4999231;28;20054;-64
2023/03/25 05:40:32;;;;;;;1.08;0.20;;;;;;;;;;5002695;28;20022;-63
2023/03/25 05:42:57;;;;;;;2.03;0.30;;;;;;;;;;5004633;28;20029;-63
2023/03/25 05:45:22;;;;;;;1.25;0.20;;;;;;;;;;4998660;28;20437;-62
2023/03/25 05:47:48;;;;;;;2.13;0.40;;;;;;;;;;4995288;28;20038;-62
2023/03/25 05:50:13;;;;;;;1.70;0.35;;;;;;;;;;5003926;28;20380;-62
2023/03/25 05:52:40;;;;;;;1.00;0.13;;;;;;;;;;5013219;28;20019;-63
2023/03/25 05:55:06;;;;;;;1.60;0.40;;;;;;;;;;5007547;28;20763;-63
2023/03/25 05:57:31;;;;;;;1.50;0.30;;;;;;;;;;4995294;28;20053;-64
2023/03/25 05:59:56;;;;;;;0.60;0.20;;;;;;;;;;5001139;28;20018;-62
2023/03/25 06:02:22;;;;;;;0.73;0.20;;;;;;;;;;4996898;28;20030;-64
2023/03/25 06:04:49;;;;;;;1.88;0.38;;;;;;;;;;4998625;28;20374;-63
2023/03/25 06:07:18;;;;;;;3.00;0.50;;;;;;;;;;5001802;28;20068;-64
2023/03/25 06:09:45;;;;;;;2.17;0.40;;;;;;;;;;4999592;28;20048;-63
2023/03/25 06:12:13;;;;;;;1.02;0.20;;;;;;;;;;4997691;28;20027;-63
2023/03/25 06:14:41;;;;;;;3.08;0.43;;;;;;;;;;5001875;28;20019;-62
2023/03/25 06:17:06;;;;;;;0.90;0.20;;;;;;;;;;4998223;28;20033;-63
2023/03/25 06:19:32;;;;;;;0.93;0.17;;;;;;;;;;4998563;28;20026;-62
2023/03/25 06:21:57;;;;;;;1.53;0.30;;;;;;;;;;5007251;28;20049;-65
2023/03/25 06:24:22;;;;;;;2.88;0.40;;;;;;;;;;5004486;28;20109;-63
2023/03/25 06:26:47;;;;;;;4.30;0.40;;;;;;;;;;5001599;28;20041;-64
2023/03/25 06:29:12;;;;;;;1.83;0.50;;;;;;;;;;4992924;28;20497;-64
2023/03/25 06:31:37;;;;;;;2.28;0.40;;;;;;;;;;5000827;28;20030;-64
2023/03/25 06:34:02;;;;;;;2.83;0.47;;;;;;;;;;5001009;28;20026;-64
2023/03/25 06:36:28;;;;;;;1.83;0.50;;;;;;;;;;5004725;28;20026;-63
2023/03/25 06:38:53;;;;;;;3.53;0.50;;;;;;;;;;5000056;28;20029;-64
2023/03/25 06:41:19;;;;;;;2.67;0.60;;;;;;;;;;4999801;28;20442;-64
2023/03/25 06:43:44;;;;;;;8.23;1.90;;;;;;;;;;5002789;28;20386;-63
2023/03/25 06:46:10;;;;;;;3.28;0.30;;;;;;;;;;5001943;28;20049;-63
2023/03/25 06:48:35;;;;;;;2.72;0.43;;;;;;;;;;5000159;28;20018;-64
2023/03/25 06:51:00;;;;;;;2.47;0.50;;;;;;;;;;4995848;28;20029;-64
2023/03/25 06:53:25;;;;;;;3.65;0.30;;;;;;;;;;4998904;28;20022;-64
2023/03/25 06:55:50;;;;;;;2.75;0.40;;;;;;;;;;4995703;28;20026;-64
2023/03/25 06:58:15;;;;;;;2.83;0.50;;;;;;;;;;4993825;28;20665;-63
2023/03/25 07:00:41;;;;;;;4.28;0.43;;;;;;;;;;4998066;28;20030;-62
2023/03/25 07:03:06;;;;;;;2.17;0.40;;;;;;;;;;4999485;28;20165;-62
2023/03/25 07:05:31;;;;;;;4.10;0.60;;;;;;;;;;5004399;28;20041;-64
2023/03/25 07:07:57;;;;;;;1.27;0.30;;;;;;;;;;4994806;28;20477;-64
2023/03/25 07:10:22;;;;;;;2.38;0.45;;;;;;;;;;4992960;28;20048;-64
2023/03/25 07:12:47;;;;;;;2.58;0.60;;;;;;;;;;4992971;28;20022;-65
2023/03/25 07:15:12;;;;;;;2.90;0.40;;;;;;;;;;4994944;28;20022;-65
2023/03/25 07:17:37;;;;;;;3.85;0.45;;;;;;;;;;4998670;28;20022;-63
2023/03/25 07:20:06;;;;;;;4.37;0.50;;;;;;;;;;4992494;28;20381;-64
2023/03/25 07:22:32;;;;;;;2.95;0.68;;;;;;;;;;4999715;28;20010;-64
2023/03/25 07:24:57;;;;;;;3.53;0.50;;;;;;;;;;4992857;28;20082;-64
2023/03/25 07:27:22;;;;;;;2.78;0.50;;;;;;;;;;4998027;28;20033;-64
2023/03/25 07:29:48;;;;;;;2.00;0.32;;;;;;;;;;5001484;28;20088;-64
2023/03/25 07:32:13;;;;;;;2.80;0.47;;;;;;;;;;4994070;28;20024;-64
2023/03/25 07:34:38;;;;;;;3.40;0.65;;;;;;;;;;4992303;28;20026;-64
2023/03/25 07:37:03;;;;;;;2.97;0.40;;;;;;;;;;4996651;28;20113;-64
2023/03/25 07:39:28;;;;;;;1.73;0.37;;;;;;;;;;4995114;28;20048;-64
2023/03/25 07:41:54;;;;;;;3.53;0.63;;;;;;;;;;5004901;28;20495;-63
2023/03/25 07:44:20;;;;;;;3.20;0.43;;;;;;;;;;5001549;28;20101;-64
2023/03/25 07:46:45;;;;;;;3.65;0.55;;;;;;;;;;4999705;28;20113;-65
2023/03/25 07:49:10;;;;;;;3.00;0.50;;;;;;;;;;4998816;28;20109;-64
2023/03/25 07:51:36;;;;;;;3.67;0.43;;;;;;;;;;5003458;28;20047;-64
2023/03/25 07:54:01;;;;;;;3.83;0.68;;;;;;;;;;4994754;28;20022;-64
2023/03/25 07:56:26;;;;;;;5.55;0.75;;;;;;;;;;4994567;28;20021;-65
2023/03/25 07:58:51;;;;;;;2.53;0.40;;;;;;;;;;5000129;28;20034;-64
2023/03/25 08:01:16;;;;;;;3.07;0.50;;;;;;;;;;5005675;28;20457;-65
2023/03/25 08:03:41;;;;;;;2.43;0.60;;;;;;;;;;5006293;28;20045;-65
2023/03/25 08:06:07;;;;;;;2.67;0.30;;;;;;;;;;5001555;28;20390;-65
2023/03/25 08:08:32;;;;;;;1.90;0.40;;;;;;;;;;4997435;28;20176;-64
2023/03/25 08:10:57;;;;;;;2.92;0.50;;;;;;;;;;4994740;28;20030;-64
2023/03/25 08:13:23;;;;;;;1.97;0.30;;;;;;;;;;5001789;28;20033;-64
2023/03/25 08:15:48;;;;;;;3.58;0.50;;;;;;;;;;5001726;28;20034;-65
2023/03/25 08:18:13;;;;;;;3.30;0.55;;;;;;;;;;4999589;28;20026;-65
2023/03/25 08:20:38;;;;;;;2.72;0.77;;;;;;;;;;4998171;28;20032;-64
2023/03/25 08:23:09;;;;;;;1.87;0.60;;;;;;;;;;4994660;28;20014;-65
2023/03/25 08:25:34;;;;;;;2.15;0.60;;;;;;;;;;5000230;28;20123;-64
2023/03/25 08:28:00;;;;;;;3.88;0.60;;;;;;;;;;4996869;28;20485;-64
2023/03/25 08:30:25;;;;;;;2.33;0.47;;;;;;;;;;4996250;28;20018;-63
2023/03/25 08:32:53;;;;;;;4.67;0.60;;;;;;;;;;5001731;28;20054;-63
2023/03/25 08:35:18;;;;;;;4.10;0.57;;;;;;;;;;4996080;28;20408;-65
2023/03/25 08:37:43;;;;;;;2.40;0.60;;;;;;;;;;5001638;28;20026;-63
2023/03/25 08:40:09;;;;;;;3.83;0.60;;;;;;;;;;5003084;28;20026;-62
2023/03/25 08:42:36;;;;;;;2.83;0.50;;;;;;;;;;5003104;28;20022;-64
2023/03/25 08:45:02;;;;;;;2.10;0.50;;;;;;;;;;5002161;28;20030;-63
2023/03/25 08:47:27;;;;;;;4.65;0.43;;;;;;;;;;4999356;28;20029;-63
2023/03/25 08:49:53;;;;;;;3.00;0.60;;;;;;;;;;5004178;28;20444;-65
2023/03/25 08:52:18;;;;;;;3.85;0.43;;;;;;;;;;4997219;28;20022;-63
2023/03/25 08:54:43;;;;;;;1.77;0.40;;;;;;;;;;5002041;28;20022;-64
2023/03/25 08:57:08;;;;;;;1.75;0.55;;;;;;;;;;5001159;28;20024;-64
2023/03/25 08:59:33;;;;;;;2.00;0.50;;;;;;;;;;4997798;28;20018;-65
2023/03/25 09:01:59;;;;;;;3.10;0.60;;;;;;;;;;5002651;28;20466;-64
2023/03/25 09:04:24;;;;;;;1.33;0.33;;;;;;;;;;4995617;28;20165;-63
2023/03/25 09:06:49;;;;;;;2.27;0.50;;;;;;;;;;4993050;28;20023;-62
2023/03/25 09:09:15;;;;;;;1.48;0.45;;;;;;;;;;5000209;28;20504;-62
2023/03/25 09:11:41;;;;;;;2.28;0.50;;;;;;;;;;4997683;28;20482;-64
2023/03/25 09:14:06;;;;;;;2.50;0.40;;;;;;;;;;4998609;28;20041;-64
2023/03/25 09:16:31;;;;;;;4.03;0.50;;;;;;;;;;5006237;28;20034;-64
2023/03/25 09:18:57;;;;;;;2.03;0.40;;;;;;;;;;4998746;28;20462;-64
2023/03/25 09:21:22;;;;;;;2.33;0.40;;;;;;;;;;4998281;28;20026;-65
2023/03/25 09:23:47;;;;;;;1.40;0.50;;;;;;;;;;4998034;28;20030;-64
2023/03/25 09:26:12;;;;;;;2.13;0.50;;;;;;;;;;5004022;28;20033;-64
2023/03/25 09:28:37;;;;;;;2.80;0.60;;;;;;;;;;5005562;28;20112;-63
2023/03/25 09:31:02;;;;;;;1.50;0.50;;;;;;;;;;5002955;28;20157;-64
2023/03/25 09:33:27;;;;;;;1.67;0.47;;;;;;;;;;4996175;28;20022;-65
2023/03/25 09:35:53;;;;;;;1.88;0.45;;;;;;;;;;4994232;28;20109;-65
2023/03/25 09:38:18;;;;;;;1.70;0.43;;;;;;;;;;5000731;28;20068;-64
2023/03/25 09:40:44;;;;;;;1.23;0.40;;;;;;;;;;5001921;28;20038;-64
2023/03/25 09:43:15;;;;;;;2.03;0.50;;;;;;;;;;4997955;28;20038;-64
2023/03/25 09:45:41;;;;;;;1.00;0.30;;;;;;;;;;5008629;28;20022;-64
2023/03/25 09:48:07;;;;;;;;;;;;;;;;;;5007037;28;20022;-63
2023/03/25 09:50:33;;;;;;;1.52;0.40;;;;;;;;;;5006411;28;19972;-62
2023/03/25 09:53:17;;;;;;;3.30;0.55;;;;;;;;;;5005807;28;20041;-63
2023/03/25 09:55:43;;;;;;;2.58;0.40;;;;;;;;;;5003195;28;20053;-64
2023/03/25 09:58:22;;;;;;;3.08;0.50;;;;;;;;;;4999823;28;20493;-64
2023/03/25 10:00:52;;;;;;;1.55;0.50;;;;;;;;;;4994917;28;20549;-64
2023/03/25 10:03:20;;;;;;;2.75;0.70;;;;;;;;;;5013001;28;20075;-63
2023/03/25 10:05:49;;;;;;;2.63;0.70;;;;;;;;;;5013815;28;20028;-63
2023/03/25 10:08:29;;;;;;;2.35;0.55;;;;;;;;;;5013024;28;20062;-63
2023/03/25 10:10:54;;;;;;;2.10;0.60;;;;;;;;;;5013953;28;20025;-64
2023/03/25 10:13:19;;;;;;;3.03;0.60;;;;;;;;;;5013466;28;20026;-63
2023/03/25 10:15:44;;;;;;;2.80;0.70;;;;;;;;;;5007063;28;20446;-64
2023/03/25 10:18:15;;;;;;;1.40;0.50;;;;;;;;;;4993350;28;20086;-63
2023/03/25 10:21:00;;;;;;;3.65;0.60;;;;;;;;;;4993644;28;20014;-64
2023/03/25 10:23:44;;;;;;;2.88;0.75;;;;;;;;;;4993915;28;20014;-63
2023/03/25 10:26:14;;;;;;;4.00;0.88;;;;;;;;;;4993381;28;20077;-64
2023/03/25 10:28:42;;;;;;;2.17;0.60;;;;;;;;;;4993040;28;20038;-64
2023/03/25 10:31:10;;;;;;;1.40;0.60;;;;;;;;;;4993620;28;20026;-64
2023/03/25 10:33:38;;;;;;;2.83;0.73;;;;;;;;;;4994048;28;20026;-63
2023/03/25 10:36:06;;;;;;;1.95;0.60;;;;;;;;;;4993088;28;20040;-63
2023/03/25 10:38:32;;;;;;;4.80;0.85;;;;;;;;;;4993390;28;20025;-63
2023/03/25 10:41:18;;;;;;;3.65;0.82;;;;;;;;;;4993692;28;20077;-63
2023/03/25 10:43:44;;;;;;;2.25;0.50;;;;;;;;;;4993710;28;20393;-63
2023/03/25 10:46:18;;;;;;;2.97;0.80;;;;;;;;;;4992918;28;20105;-63
2023/03/25 10:48:44;;;;;;;2.50;0.70;;;;;;;;;;4992924;28;20113;-63
2023/03/25 10:51:11;;;;;;;1.65;0.50;;;;;;;;;;4993400;28;20101;-63
2023/03/25 10:53:37;;;;;;;1.70;0.57;;;;;;;;;;4993537;28;20022;-64
2023/03/25 10:56:03;;;;;;;2.95;0.65;;;;;;;;;;4992519;28;20034;-61
2023/03/25 10:58:29;;;;;;;1.17;0.40;;;;;;;;;;4993564;28;20106;-64
2023/03/25 11:00:54;;;;;;;1.00;0.38;;;;;;;;;;4993554;28;20062;-65
2023/03/25 11:03:23;;;;;;;2.47;0.60;;;;;;;;;;4993665;28;20048;-65
2023/03/25 11:05:50;;;;;;;2.55;0.50;;;;;;;;;;4993134;28;20014;-62
2023/03/25 11:08:20;;;;;;;2.55;0.50;;;;;;;;;;4993091;28;20087;-64
2023/03/25 11:10:54;;;;;;;2.33;0.43;;;;;;;;;;4993929;28;20033;-64
2023/03/25 11:13:22;;;;;;;2.72;0.40;;;;;;;;;;4993549;28;20034;-63
2023/03/25 11:15:48;;;;;;;1.45;0.50;;;;;;;;;;4994814;28;20169;-64
2023/03/25 11:18:21;;;;;;;2.17;0.45;;;;;;;;;;4994854;28;20041;-64
2023/03/25 11:20:52;;;;;;;1.60;0.40;;;;;;;;;;4995029;28;20022;-63
2023/03/25 11:23:29;;;;;;;2.72;0.50;;;;;;;;;;4994409;28;20101;-63
2023/03/25 11:26:00;;;;;;;2.60;0.50;;;;;;;;;;4999761;28;20469;-64
2023/03/25 11:28:34;;;;;;;2.03;0.40;;;;;;;;;;5011876;28;20041;-64
2023/03/25 11:31:11;;;;;;;1.40;0.30;;;;;;;;;;5007624;28;20025;-65
2023/03/25 11:33:37;;;;;;;0.93;0.30;;;;;;;;;;5003192;28;20027;-65
2023/03/25 11:36:09;;;;;;;2.83;0.47;;;;;;;;;;5001275;28;20040;-63
2023/03/25 11:38:36;;;;;;;1.52;0.32;;;;;;;;;;5001878;28;20507;-63
2023/03/25 11:41:01;;;;;;;1.20;0.40;;;;;;;;;;4997552;28;20387;-63
2023/03/25 11:43:36;;;;;;;2.27;0.50;;;;;;;;;;4992384;28;20077;-64
2023/03/25 11:46:08;;;;;;;3.70;0.70;;;;;;;;;;4991164;28;20445;-64
2023/03/25 11:48:36;;;;;;;1.88;0.60;;;;;;;;;;4992529;28;20129;-64
2023/03/25 11:51:02;;;;;;;2.05;0.30;;;;;;;;;;4995846;28;20026;-64
2023/03/25 11:53:30;;;;;;;2.78;0.43;;;;;;;;;;4992071;28;20044;-62
2023/03/25 11:56:00;;;;;;;1.23;0.30;;;;;;;;;;4992155;28;20033;-63
2023/03/25 11:58:28;;;;;;;1.48;0.40;;;;;;;;;;4998614;28;20544;-64
2023/03/25 12:01:01;;;;;;;1.95;0.32;;;;;;;;;;4992673;28;20085;-64
2023/03/25 12:03:26;;;;;;;1.00;0.20;;;;;;;;;;4998890;28;20026;-64
2023/03/25 12:05:57;;;;;;;1.15;0.30;;;;;;;;;;5000271;28;20018;-64
2023/03/25 12:08:23;;;;;;;3.22;0.80;;;;;;;;;;4997127;28;20050;-65
2023/03/25 12:10:51;;;;;;;2.43;0.50;;;;;;;;;;4992403;28;20036;-64
2023/03/25 12:13:23;;;;;;;1.50;0.40;;;;;;;;;;4994934;28;20460;-64
2023/03/25 12:16:02;;;;;;;2.28;0.40;;;;;;;;;;4993367;28;20098;-64
2023/03/25 12:18:38;;;;;;;1.88;0.47;;;;;;;;;;5006515;28;20050;-64
2023/03/25 12:21:11;;;;;;;2.08;0.47;;;;;;;;;;4993482;28;20670;-65
2023/03/25 12:23:42;;;;;;;3.63;0.50;;;;;;;;;;4997399;28;20030;-64
2023/03/25 12:26:16;;;;;;;3.75;0.60;;;;;;;;;;4994890;28;20068;-63
2023/03/25 12:28:41;;;;;;;1.73;0.38;;;;;;;;;;4991310;28;20061;-64
2023/03/25 12:31:19;;;;;;;1.50;0.50;;;;;;;;;;4996335;28;20046;-64
2023/03/25 12:33:57;;;;;;;0.95;0.40;;;;;;;;;;4993552;28;20098;-64
2023/03/25 12:36:38;;;;;;;0.57;0.20;;;;;;;;;;4997524;28;20085;-64
2023/03/25 12:39:22;;;;;;;3.00;0.50;;;;;;;;;;5008747;28;20033;-64
2023/03/25 12:42:05;;;;;;;1.65;0.40;;;;;;;;;;4992051;28;20112;-62
2023/03/25 12:44:40;;;;;;;1.88;0.38;;;;;;;;;;5001174;28;20029;-65
2023/03/25 12:47:14;;;;;;;2.28;0.50;;;;;;;;;;4997149;28;20022;-63
2023/03/25 12:49:57;;;;;;;0.60;0.30;;;;;;;;;;4997914;28;20025;-63
2023/03/25 12:52:25;;;;;;;1.83;0.50;;;;;;;;;;4991441;28;20022;-63
2023/03/25 12:55:12;;;;;;;0.82;0.38;;;;;;;;;;4996723;28;20030;-63
2023/03/25 12:58:01;;;;;;;2.08;0.40;;;;;;;;;;4995646;28;20024;-63
2023/03/25 13:00:35;;;;;;;0.77;0.28;;;;;;;;;;4979572;28;20049;-62
2023/03/25 13:03:20;;;;;;;1.13;0.38;;;;;;;;;;5009400;28;20139;-63
2023/03/25 13:05:49;;;;;;;2.97;0.30;;;;;;;;;;5003281;28;20065;-65
2023/03/25 13:08:24;;;;;;;2.45;0.50;;;;;;;;;;5000784;28;20061;-64
2023/03/25 13:10:57;;;;;;;2.15;0.20;;;;;;;;;;5001762;28;20417;-64
2023/03/25 13:13:24;;;;;;;0.77;0.20;;;;;;;;;;5001643;28;20018;-63
2023/03/25 13:15:56;;;;;;;1.25;0.30;;;;;;;;;;5006340;28;20033;-63
2023/03/25 13:18:26;;;;;;;1.15;0.30;;;;;;;;;;5001418;28;20042;-65
2023/03/25 13:21:07;;;;;;;2.10;0.50;;;;;;;;;;4999200;28;20690;-64
2023/03/25 13:23:34;;;;;;;1.15;0.35;;;;;;;;;;5002194;28;20034;-63
2023/03/25 13:26:05;;;;;;;2.05;0.50;;;;;;;;;;5000963;28;20537;-64
2023/03/25 13:28:37;;;;;;;0.73;0.30;;;;;;;;;;5003106;28;20034;-63
2023/03/25 13:31:03;;;;;;;1.92;0.30;;;;;;;;;;5002169;28;20081;-63
2023/03/25 13:33:31;;;;;;;2.53;0.65;;;;;;;;;;4999518;28;20025;-64
2023/03/25 13:36:14;;;;;;;1.23;0.47;;;;;;;;;;4998564;28;20022;-63
2023/03/25 13:38:40;;;;;;;;;;;;;;;;;;5002477;28;20017;-64
2023/03/25 13:41:05;;;;;;;2.35;0.40;;;;;;;;;;5002440;28;20550;-63
2023/03/25 13:43:48;;;;;;;2.90;0.67;;;;;;;;;;4998062;28;20034;-64
2023/03/25 13:46:15;;;;;;;2.75;0.50;;;;;;;;;;4996959;28;20033;-64
2023/03/25 13:48:52;;;;;;;3.30;0.63;;;;;;;;;;4995796;28;20027;-65
2023/03/25 13:51:18;;;;;;;2.63;0.60;;;;;;;;;;4998231;28;20030;-65
2023/03/25 13:53:56;;;;;;;3.40;1.23;;;;;;;;;;5000048;28;20036;-64
2023/03/25 13:56:33;;;;;;;2.92;0.70;;;;;;;;;;4999894;28;20018;-64
2023/03/25 13:59:05;;;;;;;3.25;0.82;;;;;;;;;;5002487;28;20037;-64
2023/03/25 14:01:49;;;;;;;4.00;0.73;;;;;;;;;;4994045;28;20011;-63
2023/03/25 14:04:14;;;;;;;3.22;0.60;;;;;;;;;;4996212;28;20569;-63
2023/03/25 14:06:45;;;;;;;4.68;0.50;;;;;;;;;;4995136;28;20053;-63
2023/03/25 14:09:20;;;;;;;2.60;0.65;;;;;;;;;;4993877;28;20557;-64
2023/03/25 14:11:49;;;;;;;2.05;0.50;;;;;;;;;;5004873;28;20018;-64
2023/03/25 14:14:16;;;;;;;3.25;0.57;;;;;;;;;;5001983;28;20536;-64
2023/03/25 14:16:44;;;;;;;2.35;0.60;;;;;;;;;;4995678;28;20470;-64
2023/03/25 14:19:11;;;;;;;4.22;0.65;;;;;;;;;;5006797;28;20469;-64
2023/03/25 14:21:37;;;;;;;3.35;0.80;;;;;;;;;;4999098;28;20037;-65
2023/03/25 14:24:10;;;;;;;2.45;0.47;;;;;;;;;;5001103;28;20018;-63
2023/03/25 14:26:40;;;;;;;3.05;0.40;;;;;;;;;;5002047;28;20033;-63
2023/03/25 14:29:17;;;;;;;4.95;0.60;;;;;;;;;;5001249;28;20041;-65
2023/03/25 14:31:57;;;;;;;2.90;0.57;;;;;;;;;;4995041;28;20042;-64
2023/03/25 14:34:24;;;;;;;4.38;0.50;;;;;;;;;;4996177;28;20022;-63
2023/03/25 14:36:50;;;;;;;2.85;0.57;;;;;;;;;;5003744;28;20022;-64
2023/03/25 14:39:33;;;;;;;3.33;0.77;;;;;;;;;;5001805;28;20045;-63
2023/03/25 14:42:10;;;;;;;3.58;0.75;;;;;;;;;;4993524;28;20066;-63
2023/03/25 14:44:53;;;;;;;2.88;0.93;;;;;;;;;;4999689;28;20119;-63
2023/03/25 14:47:21;;;;;;;2.42;0.50;;;;;;;;;;4997143;28;20513;-62
2023/03/25 14:49:48;;;;;;;4.78;0.60;;;;;;;;;;5005481;28;20547;-63
2023/03/25 14:52:14;;;;;;;3.67;0.47;;;;;;;;;;5003194;28;20489;-64